Time;durP1;ratioP1;P1;durP2;ratioP2;P2;SDS_P1;SDS_P2;PMS_P1;PMS_P2;Temp;Humidity;BMP_temperature;BMP_pressure;BME280_temperature;BME280_humidity;BME280_pressure;Samples;Min_cycle;Max_cycle;Signal;HPM_P1;HPM_P2
2022/12/17 13:06:39;;;;;;;123.50;82.80;;;;;;;-4.20;93.01;98363.70;105563;1321;22210;-82
2022/12/17 13:09:22;;;;;;;110.00;79.20;;;;;;;-4.19;93.00;98370.07;105461;1309;22191;-83
2022/12/17 13:11:59;;;;;;;116.90;81.30;;;;;;;-4.18;92.89;98379.70;105838;1309;22766;-84
2022/12/17 13:14:30;;;;;;;112.20;78.20;;;;;;;-4.22;92.97;98380.95;105568;1321;22229;-83
2022/12/17 13:17:07;;;;;;;109.40;78.30;;;;;;;-4.25;93.22;98382.38;105246;1322;22828;-83
2022/12/17 13:19:40;;;;;;;113.60;80.50;;;;;;;-4.24;93.37;98384.80;105842;1306;22881;-84
2022/12/17 13:22:27;;;;;;;121.80;83.00;;;;;;;-4.18;93.57;98384.21;105543;1321;22953;-82
2022/12/17 13:25:20;;;;;;;143.10;92.00;;;;;;;-4.16;93.41;98389.45;105075;1322;22208;-84
2022/12/17 13:27:49;;;;;;;136.20;89.50;;;;;;;-4.14;93.32;98394.84;105256;1321;22200;-83
2022/12/17 13:30:17;;;;;;;138.70;90.60;;;;;;;-4.14;93.35;98400.67;105274;1321;22187;-83
2022/12/17 13:33:16;;;;;;;125.90;89.10;;;;;;;-4.13;93.41;98408.20;105431;1321;22252;-85
2022/12/17 13:36:14;;;;;;;152.10;96.40;;;;;;;-4.12;93.63;98408.70;105392;1321;22854;-83
2022/12/17 13:39:02;;;;;;;144.70;88.50;;;;;;;-4.15;93.52;98411.19;105356;1323;22381;-84
2022/12/17 13:41:33;;;;;;;128.70;86.10;;;;;;;-4.18;93.55;98413.96;105906;1314;22177;-84
2022/12/17 13:44:16;;;;;;;156.50;96.50;;;;;;;-4.22;93.77;98416.16;105323;1316;22115;-84
2022/12/17 13:46:46;;;;;;;145.40;95.60;;;;;;;-4.20;93.65;98424.08;105922;1314;22168;-84
2022/12/17 13:49:26;;;;;;;160.50;98.60;;;;;;;-4.19;93.80;98422.66;105465;1305;22167;-84
2022/12/17 13:52:05;;;;;;;156.40;95.10;;;;;;;-4.16;93.82;98427.91;105394;1321;22209;-86
2022/12/17 13:54:38;;;;;;;145.50;89.70;;;;;;;-4.20;93.92;98430.79;105946;1312;22178;-84
2022/12/17 13:57:13;;;;;;;144.80;89.80;;;;;;;-4.17;94.16;98434.94;105550;1322;22227;-88
2022/12/17 13:59:52;;;;;;;146.70;92.70;;;;;;;-4.19;93.87;98439.21;105310;1327;22735;-85
2022/12/17 14:02:25;;;;;;;153.90;94.80;;;;;;;-4.28;94.04;98448.18;105290;1322;22804;-86
2022/12/17 14:04:56;;;;;;;152.50;95.20;;;;;;;-4.28;94.25;98460.15;105258;1316;22214;-83
2022/12/17 14:07:26;;;;;;;153.70;94.10;;;;;;;-4.23;94.52;98462.26;105368;1323;22798;-84
2022/12/17 14:09:55;;;;;;;171.50;106.50;;;;;;;-4.21;94.38;98464.67;105609;1323;22192;-84
2022/12/17 14:12:26;;;;;;;159.60;97.60;;;;;;;-4.23;94.22;98469.63;105590;1322;22936;-83
2022/12/17 14:14:57;;;;;;;158.60;97.90;;;;;;;-4.23;94.51;98473.88;105558;1322;22225;-86
2022/12/17 14:17:27;;;;;;;164.40;100.50;;;;;;;-4.22;94.47;98480.32;105960;1313;22065;-87
2022/12/17 14:20:01;;;;;;;184.40;110.10;;;;;;;-4.14;94.56;98485.77;105677;1323;22113;-88
2022/12/17 14:22:35;;;;;;;180.60;107.00;;;;;;;-4.08;94.62;98485.05;105471;1322;21758;-88
2022/12/17 14:25:05;;;;;;;177.30;107.10;;;;;;;-4.10;94.45;98493.50;106259;1305;23089;-89
2022/12/17 14:27:35;;;;;;;187.30;108.30;;;;;;;-4.12;94.44;98495.67;105790;1309;22218;-89
2022/12/17 14:30:24;;;;;;;163.80;97.20;;;;;;;-4.11;94.59;98501.72;106106;1314;22159;-90
2022/12/17 14:32:52;;;;;;;157.80;95.40;;;;;;;-4.11;94.68;98504.18;105847;1307;22194;-87
2022/12/17 14:35:23;;;;;;;152.20;94.50;;;;;;;-4.11;94.85;98506.22;106022;1301;22079;-90
2022/12/17 14:38:19;;;;;;;153.30;94.20;;;;;;;-4.14;94.76;98508.16;106065;1283;23783;31
2022/12/17 14:44:50;;;;;;;156.00;92.20;;;;;;;-4.28;94.88;98518.00;107134;1288;23710;31
2022/12/17 14:47:53;;;;;;;144.60;87.00;;;;;;;-4.30;94.93;98522.64;105841;1292;22681;-85
2022/12/17 14:50:34;;;;;;;146.40;89.70;;;;;;;-4.24;95.05;98525.98;105966;1286;22347;31
2022/12/17 14:53:26;;;;;;;153.30;95.10;;;;;;;-4.26;95.01;98532.79;106802;1293;22594;31
2022/12/17 14:56:01;;;;;;;151.50;91.20;;;;;;;-4.28;95.08;98537.54;106513;1285;22295;31
2022/12/17 14:59:01;;;;;;;147.60;90.60;;;;;;;-4.37;95.16;98527.91;107371;1277;23737;31
2022/12/17 15:05:06;;;;;;;163.10;99.20;;;;;;;-4.30;95.26;98554.70;104992;1283;23943;31
2022/12/17 15:07:54;;;;;;;169.10;96.60;;;;;;;-4.31;95.30;98557.99;106613;1284;22291;31
2022/12/17 15:10:22;;;;;;;176.40;105.60;;;;;;;-4.37;95.37;98564.51;105385;1321;22837;-88
2022/12/17 15:12:52;;;;;;;169.50;105.80;;;;;;;-4.33;95.49;98562.27;105546;1308;22746;-87
2022/12/17 15:15:20;;;;;;;172.70;105.20;;;;;;;-4.29;95.39;98568.27;105479;1309;22181;-87
2022/12/17 15:17:48;;;;;;;183.70;112.30;;;;;;;-4.26;95.49;98571.62;105285;1321;22187;-85
2022/12/17 15:20:18;;;;;;;170.20;103.10;;;;;;;-4.26;95.55;98574.77;105397;1322;22236;-84
2022/12/17 15:22:46;;;;;;;172.10;100.60;;;;;;;-4.29;95.40;98577.95;105516;1321;22185;-86
2022/12/17 15:25:18;;;;;;;172.70;102.30;;;;;;;-4.30;95.30;98582.98;105897;1314;22206;-84
2022/12/17 15:27:46;;;;;;;169.20;106.20;;;;;;;-4.28;95.54;98583.97;105313;1321;22122;-87
2022/12/17 15:30:16;;;;;;;171.60;105.20;;;;;;;-4.23;95.55;98588.81;105771;1314;22344;-86
2022/12/17 15:32:45;;;;;;;172.00;106.30;;;;;;;-4.22;95.63;98588.98;105647;1314;22259;-83
2022/12/17 15:35:13;;;;;;;184.60;110.40;;;;;;;-4.22;95.79;98592.59;105926;1314;22190;-85
2022/12/17 15:37:41;;;;;;;177.20;103.30;;;;;;;-4.22;95.47;98598.86;105460;1315;22109;-88
2022/12/17 15:40:10;;;;;;;184.20;106.80;;;;;;;-4.21;95.54;98601.35;105694;1321;22381;-85
2022/12/17 15:45:33;;;;;;;194.80;118.00;;;;;;;-4.20;95.76;98603.82;105523;1321;22232;-86
2022/12/17 15:48:01;;;;;;;200.20;121.20;;;;;;;-4.17;95.69;98600.17;105592;1321;22745;-86
2022/12/17 15:50:29;;;;;;;213.30;123.30;;;;;;;-4.16;95.88;98606.58;105654;1320;22204;-82
2022/12/17 15:52:57;;;;;;;205.90;117.50;;;;;;;-4.20;95.82;98608.27;105620;1321;22717;-84
2022/12/17 15:55:25;;;;;;;189.50;108.20;;;;;;;-4.25;95.78;98608.84;105562;1321;22641;-86
2022/12/17 15:57:53;;;;;;;184.10;106.70;;;;;;;-4.27;95.89;98612.73;105930;1314;22185;-86
2022/12/17 16:00:21;;;;;;;190.50;110.00;;;;;;;-4.28;96.02;98617.00;105647;1321;22233;-89
2022/12/17 16:02:50;;;;;;;184.50;108.50;;;;;;;-4.28;95.96;98620.30;105208;1321;22232;-89
2022/12/17 16:05:19;;;;;;;204.90;119.50;;;;;;;-4.27;96.05;98623.66;105637;1314;22160;-88
2022/12/17 16:07:48;;;;;;;197.10;114.70;;;;;;;-4.27;95.93;98625.31;105662;1302;22892;-87
2022/12/17 16:10:17;;;;;;;197.00;108.30;;;;;;;-4.32;96.01;98626.06;105405;1321;22132;-86
2022/12/17 16:12:45;;;;;;;194.20;111.90;;;;;;;-4.33;96.02;98631.44;105586;1315;22985;-85
2022/12/17 16:15:13;;;;;;;183.70;110.50;;;;;;;-4.30;95.99;98634.75;105477;1321;22294;-89
2022/12/17 16:17:41;;;;;;;198.30;119.00;;;;;;;-4.27;96.11;98639.45;105979;1301;22166;-87
2022/12/17 16:20:10;;;;;;;212.60;123.60;;;;;;;-4.26;96.29;98641.32;105263;1321;22199;-88
2022/12/17 16:22:38;;;;;;;206.10;115.10;;;;;;;-4.27;96.14;98644.23;105955;1314;22250;-85
2022/12/17 16:25:06;;;;;;;184.40;105.60;;;;;;;-4.31;96.03;98646.97;105518;1321;22225;-84
2022/12/17 16:27:34;;;;;;;181.60;101.10;;;;;;;-4.36;96.10;98656.06;105354;1321;22240;-86
2022/12/17 16:30:03;;;;;;;184.80;106.90;;;;;;;-4.39;96.26;98655.06;105629;1321;22219;-86
2022/12/17 16:32:32;;;;;;;187.80;109.00;;;;;;;-4.46;96.22;98658.52;105488;1321;22260;-89
2022/12/17 16:35:04;;;;;;;184.60;106.50;;;;;;;-4.43;96.26;98662.61;105442;1321;23026;-85
2022/12/17 16:37:32;;;;;;;186.30;106.70;;;;;;;-4.47;96.30;98660.95;105576;1321;22202;-87
2022/12/17 16:40:00;;;;;;;185.00;105.00;;;;;;;-4.50;96.29;98661.15;105357;1321;22226;-84
2022/12/17 16:42:28;;;;;;;171.10;98.40;;;;;;;-4.50;96.16;98663.74;105803;1314;22094;-89
2022/12/17 16:44:56;;;;;;;184.00;103.10;;;;;;;-4.51;96.20;98672.68;105635;1312;22101;-90
2022/12/17 16:47:25;;;;;;;181.60;102.80;;;;;;;-4.54;96.34;98670.84;105606;1321;22230;-85
2022/12/17 16:49:53;;;;;;;171.80;100.30;;;;;;;-4.52;96.42;98681.06;105165;1321;22138;-85
2022/12/17 16:52:21;;;;;;;182.80;104.90;;;;;;;-4.54;96.36;98686.03;105378;1318;22170;-86
2022/12/17 16:54:48;;;;;;;182.30;102.90;;;;;;;-4.54;95.98;98687.96;105380;1321;22957;-85
2022/12/17 16:57:17;;;;;;;171.20;96.20;;;;;;;-4.61;96.08;98685.58;106055;1309;22323;-85
2022/12/17 16:59:45;;;;;;;171.70;97.80;;;;;;;-4.67;96.10;98694.23;105886;1314;22316;-88
2022/12/17 17:02:14;;;;;;;173.90;101.00;;;;;;;-4.65;96.22;98699.39;105503;1321;22125;-86
2022/12/17 17:04:43;;;;;;;179.20;100.90;;;;;;;-4.61;96.25;98708.63;105937;1306;22298;-84
2022/12/17 17:07:11;;;;;;;183.90;102.80;;;;;;;-4.65;96.28;98713.92;105954;1314;22192;-83
2022/12/17 17:09:39;;;;;;;181.40;102.40;;;;;;;-4.67;96.32;98713.16;105264;1321;22228;-84
2022/12/17 17:12:07;;;;;;;184.20;107.30;;;;;;;-4.67;96.15;98716.52;105835;1312;22153;-85
2022/12/17 17:14:35;;;;;;;191.80;106.40;;;;;;;-4.66;96.40;98721.14;105870;1299;22138;-85
2022/12/17 17:17:03;;;;;;;188.50;104.30;;;;;;;-4.67;96.48;98720.20;106175;1317;22179;-83
2022/12/17 17:19:31;;;;;;;193.70;105.60;;;;;;;-4.71;96.39;98724.27;105765;1321;22134;-86
2022/12/17 17:21:59;;;;;;;184.50;99.90;;;;;;;-4.75;96.41;98726.52;106051;1309;22179;-83
2022/12/17 17:24:27;;;;;;;180.40;99.00;;;;;;;-4.82;96.51;98724.35;105795;1309;22219;-85
2022/12/17 17:26:55;;;;;;;186.10;102.20;;;;;;;-4.86;96.67;98727.45;105551;1321;22126;-84
2022/12/17 17:29:23;;;;;;;179.00;98.00;;;;;;;-4.90;96.59;98730.17;105340;1309;22148;-84
2022/12/17 17:31:51;;;;;;;185.70;102.20;;;;;;;-4.90;96.85;98734.61;105581;1321;22143;-86
2022/12/17 17:34:39;;;;;;;183.40;96.50;;;;;;;-4.97;96.60;98743.33;105450;1321;22282;-81
2022/12/17 17:37:07;;;;;;;186.90;98.90;;;;;;;-5.00;96.88;98750.83;105584;1321;22285;-85
2022/12/17 17:39:35;;;;;;;184.60;99.30;;;;;;;-5.02;96.94;98755.75;105663;1302;22831;-81
2022/12/17 17:42:04;;;;;;;181.30;99.10;;;;;;;-4.99;97.23;98759.84;105481;1315;22108;-80
2022/12/17 17:44:33;;;;;;;179.50;98.50;;;;;;;-5.00;97.03;98760.64;105633;1314;22244;-85
2022/12/17 17:47:01;;;;;;;181.40;95.20;;;;;;;-5.04;96.99;98766.27;105499;1321;22237;-82
2022/12/17 17:49:29;;;;;;;197.80;104.20;;;;;;;-5.09;96.96;98766.79;106073;1305;22183;-82
2022/12/17 17:51:57;;;;;;;170.80;93.40;;;;;;;-5.13;97.14;98767.86;105321;1308;22946;-82
2022/12/17 17:54:46;;;;;;;183.70;100.90;;;;;;;-5.10;97.23;98772.17;105751;1314;22160;-82
2022/12/17 17:57:32;;;;;;;192.80;104.10;;;;;;;-5.17;97.23;98770.79;105144;1302;22226;-81
2022/12/17 18:00:01;;;;;;;179.20;97.50;;;;;;;-5.15;96.91;98780.95;105249;1321;22969;-83
2022/12/17 18:02:32;;;;;;;184.10;100.70;;;;;;;-5.15;96.90;98784.95;105804;1315;22145;-79
2022/12/17 18:05:00;;;;;;;175.70;96.50;;;;;;;-5.13;97.20;98788.23;105948;1314;22591;-81
2022/12/17 18:07:28;;;;;;;168.20;93.30;;;;;;;-5.12;97.02;98790.91;105552;1321;22770;-82
2022/12/17 18:09:58;;;;;;;196.90;106.80;;;;;;;-5.18;97.05;98794.13;105542;1299;22219;-82
2022/12/17 18:15:13;;;;;;;194.00;104.30;;;;;;;-5.22;96.85;98800.64;105401;1319;22186;-81
2022/12/17 18:17:46;;;;;;;188.20;102.40;;;;;;;-5.18;96.94;98809.85;105856;1299;22744;-84
2022/12/17 18:20:15;;;;;;;210.50;114.60;;;;;;;-5.20;97.10;98810.95;105284;1321;22275;-85
2022/12/17 18:22:44;;;;;;;189.30;97.20;;;;;;;-5.25;96.97;98816.27;105270;1321;22320;-85
2022/12/17 18:25:15;;;;;;;198.40;105.90;;;;;;;-5.29;96.94;98818.91;105832;1309;22773;-82
2022/12/17 18:27:44;;;;;;;181.40;96.60;;;;;;;-5.29;97.12;98829.55;105940;1299;22865;-80
2022/12/17 18:30:12;;;;;;;181.20;98.70;;;;;;;-5.39;97.22;98824.14;105608;1321;22212;-85
2022/12/17 18:32:41;;;;;;;158.50;85.30;;;;;;;-5.34;97.00;98844.04;105783;1309;22175;-85
2022/12/17 18:35:09;;;;;;;163.00;88.20;;;;;;;-5.35;96.69;98851.04;105913;1313;22529;-85
2022/12/17 18:37:37;;;;;;;156.20;87.30;;;;;;;-5.44;96.80;98855.36;105687;1314;22156;-84
2022/12/17 18:40:06;;;;;;;152.30;84.10;;;;;;;-5.47;96.95;98856.55;105586;1316;22436;-83
2022/12/17 18:45:21;;;;;;;153.70;87.00;;;;;;;-5.53;96.43;98866.63;105305;1321;22366;-84
2022/12/17 18:47:51;;;;;;;161.20;89.70;;;;;;;-5.58;96.19;98874.43;105562;1315;22815;-85
2022/12/17 18:50:19;;;;;;;163.90;89.90;;;;;;;-5.67;96.13;98875.46;105407;1321;22263;-84
2022/12/17 18:52:47;;;;;;;153.60;87.10;;;;;;;-5.67;96.30;98877.01;105331;1321;22278;-85
2022/12/17 18:55:15;;;;;;;153.40;85.40;;;;;;;-5.68;96.28;98879.57;105111;1321;22297;-85
2022/12/17 18:57:43;;;;;;;157.90;87.50;;;;;;;-5.74;96.35;98880.38;105519;1316;22246;-84
2022/12/17 19:00:13;;;;;;;169.90;91.50;;;;;;;-5.73;96.38;98879.79;105416;1321;22815;-84
2022/12/17 19:02:43;;;;;;;165.50;88.70;;;;;;;-5.76;96.29;98877.10;105549;1321;22277;-85
2022/12/17 19:05:12;;;;;;;174.20;97.30;;;;;;;-5.77;96.57;98875.59;105522;1321;22194;-82
2022/12/17 19:07:40;;;;;;;179.20;95.70;;;;;;;-5.79;96.46;98881.23;105102;1321;22281;-83
2022/12/17 19:10:09;;;;;;;183.00;95.80;;;;;;;-5.81;96.39;98879.27;105372;1321;22202;-83
2022/12/17 19:12:37;;;;;;;170.50;92.10;;;;;;;-5.81;96.73;98878.69;105941;1302;22171;-82
2022/12/17 19:15:06;;;;;;;169.10;91.60;;;;;;;-5.80;96.76;98887.84;105954;1314;22179;-83
2022/12/17 19:17:34;;;;;;;155.40;86.40;;;;;;;-5.77;96.74;98887.34;105315;1321;22253;-84
2022/12/17 19:20:02;;;;;;;167.50;92.90;;;;;;;-5.73;96.47;98890.55;105776;1314;22158;-87
2022/12/17 19:22:30;;;;;;;147.00;82.60;;;;;;;-5.79;96.35;98894.92;105525;1321;22088;-83
2022/12/17 19:24:58;;;;;;;138.90;80.40;;;;;;;-5.81;96.34;98898.19;105545;1321;22218;-86
2022/12/17 19:27:27;;;;;;;132.80;76.70;;;;;;;-5.79;96.44;98901.08;105544;1321;22094;-84
2022/12/17 19:29:55;;;;;;;120.50;73.80;;;;;;;-5.78;96.42;98908.46;105395;1321;22122;-84
2022/12/17 19:32:24;;;;;;;121.60;76.10;;;;;;;-5.80;96.53;98913.63;105818;1313;170354;-84
2022/12/17 19:34:52;;;;;;;109.40;72.20;;;;;;;-5.82;96.32;98917.48;105311;1321;22253;-86
2022/12/17 19:37:20;;;;;;;97.40;67.70;;;;;;;-5.82;96.43;98917.16;106021;1313;22202;-86
2022/12/17 19:39:48;;;;;;;93.00;66.60;;;;;;;-5.85;96.38;98911.31;105474;1321;22224;-85
2022/12/17 19:42:26;;;;;;;102.60;71.60;;;;;;;-5.80;96.51;98918.10;105589;1321;22109;-87
2022/12/17 19:45:03;;;;;;;114.90;71.00;;;;;;;-5.81;96.35;98920.16;105431;1321;22277;-85
2022/12/17 19:47:31;;;;;;;106.70;68.50;;;;;;;-5.81;96.39;98921.81;105413;1321;22186;-84
2022/12/17 19:49:59;;;;;;;84.50;63.00;;;;;;;-5.81;96.35;98923.90;105791;1303;22186;-85
2022/12/17 19:52:27;;;;;;;100.70;70.20;;;;;;;-5.77;96.63;98926.91;105573;1321;22221;-84
2022/12/17 19:54:55;;;;;;;113.00;73.40;;;;;;;-5.74;96.51;98928.76;105322;1321;22187;-85
2022/12/17 19:57:23;;;;;;;109.80;72.70;;;;;;;-5.74;96.58;98930.29;105405;1321;22112;-84
2022/12/17 19:59:51;;;;;;;133.80;76.80;;;;;;;-5.74;96.45;98932.91;105914;1314;22197;-85
2022/12/17 20:02:19;;;;;;;124.00;75.50;;;;;;;-5.78;96.34;98932.96;105542;1321;23053;-85
2022/12/17 20:04:47;;;;;;;133.70;75.80;;;;;;;-5.78;96.60;98939.58;105305;1321;22233;-85
2022/12/17 20:07:15;;;;;;;131.00;76.90;;;;;;;-5.75;96.66;98945.80;105305;1323;22236;-84
2022/12/17 20:09:43;;;;;;;153.50;84.60;;;;;;;-5.74;96.67;98946.37;105278;1318;22349;-85
2022/12/17 20:12:12;;;;;;;153.40;81.50;;;;;;;-5.76;96.76;98955.17;105346;1321;22198;-85
2022/12/17 20:14:40;;;;;;;154.90;82.40;;;;;;;-5.75;96.81;98960.12;105583;1321;22907;-82
2022/12/17 20:17:08;;;;;;;167.10;90.40;;;;;;;-5.73;96.78;98959.55;105476;1321;22235;-84
2022/12/17 20:19:37;;;;;;;174.20;94.50;;;;;;;-5.72;96.68;98960.14;105299;1321;22267;-85
2022/12/17 20:22:05;;;;;;;178.00;93.00;;;;;;;-5.71;96.64;98968.14;105642;1315;22167;-84
2022/12/17 20:24:35;;;;;;;174.80;89.20;;;;;;;-5.74;96.67;98972.13;105426;1321;22276;-84
2022/12/17 20:27:04;;;;;;;169.00;91.40;;;;;;;-5.74;96.93;98975.97;105377;1321;22216;-83
2022/12/17 20:29:32;;;;;;;170.80;95.80;;;;;;;-5.73;97.01;98975.86;105654;1313;22329;-83
2022/12/17 20:32:00;;;;;;;155.60;86.70;;;;;;;-5.69;97.20;98977.14;105412;1321;22963;-84
2022/12/17 20:34:29;;;;;;;152.80;84.00;;;;;;;-5.72;97.07;98985.30;105522;1321;22207;-84
2022/12/17 20:36:57;;;;;;;139.80;78.30;;;;;;;-5.76;97.11;98986.15;105372;1323;22469;-85
2022/12/17 20:39:25;;;;;;;115.00;72.50;;;;;;;-5.73;97.20;98991.55;105331;1321;22129;-85
2022/12/17 20:41:56;;;;;;;129.30;73.70;;;;;;;-5.74;97.13;98993.26;105296;1321;22969;-83
2022/12/17 20:44:24;;;;;;;101.80;70.20;;;;;;;-5.73;97.14;98995.20;105636;1302;22173;-83
2022/12/17 20:46:52;;;;;;;105.30;71.80;;;;;;;-5.72;97.16;99001.06;105317;1321;22255;-84
2022/12/17 20:49:20;;;;;;;101.10;69.10;;;;;;;-5.72;97.04;99002.15;105758;1314;22107;-82
2022/12/17 20:51:48;;;;;;;114.10;71.00;;;;;;;-5.71;97.05;99011.34;105577;1316;22962;-84
2022/12/17 20:54:17;;;;;;;97.20;66.60;;;;;;;-5.66;97.06;99019.92;105456;1321;22914;-84
2022/12/17 20:56:45;;;;;;;88.10;65.00;;;;;;;-5.63;97.09;99022.34;105279;1321;22198;-84
2022/12/17 20:59:16;;;;;;;99.30;67.90;;;;;;;-5.59;97.08;99025.06;105330;1321;22209;-85
2022/12/17 21:01:45;;;;;;;97.10;67.80;;;;;;;-5.66;96.92;99027.80;105785;1309;22181;-83
2022/12/17 21:04:19;;;;;;;85.40;66.50;;;;;;;-5.69;97.05;99034.40;105403;1321;22231;-84
2022/12/17 21:06:47;;;;;;;92.80;68.40;;;;;;;-5.70;97.29;99039.00;105332;1321;23026;-84
2022/12/17 21:09:18;;;;;;;96.80;68.40;;;;;;;-5.64;97.30;99045.55;105800;1302;22094;-84
2022/12/17 21:11:47;;;;;;;142.70;86.50;;;;;;;-5.62;97.20;99039.91;105800;1312;22057;-83
2022/12/17 21:14:17;;;;;;;143.00;81.10;;;;;;;-5.64;97.02;99043.66;105536;1321;22301;-86
2022/12/17 21:16:45;;;;;;;134.00;74.30;;;;;;;-5.63;97.13;99044.36;105675;1316;22170;-84
2022/12/17 21:19:17;;;;;;;106.20;71.80;;;;;;;-5.58;97.18;99045.23;105823;1313;22194;-87
2022/12/17 21:21:45;;;;;;;112.70;75.30;;;;;;;-5.55;97.20;99053.19;105681;1309;22835;-84
2022/12/17 21:24:13;;;;;;;101.60;73.30;;;;;;;-5.54;97.02;99056.40;105530;1321;22749;-83
2022/12/17 21:26:42;;;;;;;104.00;74.00;;;;;;;-5.56;96.97;99060.11;105277;1321;22179;-85
2022/12/17 21:29:11;;;;;;;122.20;75.00;;;;;;;-5.57;97.03;99063.20;105274;1316;22920;-84
2022/12/17 21:31:46;;;;;;;150.30;84.70;;;;;;;-5.55;97.10;99063.30;105375;1321;22829;-86
2022/12/17 21:34:16;;;;;;;;;;;;;;;-5.51;97.17;99065.32;105494;1321;22386;-85
2022/12/17 21:36:44;;;;;;;111.70;74.60;;;;;;;-5.54;96.86;99070.79;105540;1321;22233;-85
2022/12/17 21:39:13;;;;;;;95.40;68.80;;;;;;;-5.57;96.85;99075.94;105410;1321;22154;-85
2022/12/17 21:43:00;;;;;;;96.60;67.90;;;;;;;-5.58;96.80;99071.58;105551;1315;22273;-84
2022/12/17 21:44:31;;;;;;;94.70;69.70;;;;;;;-5.55;96.59;99077.31;105345;1321;22129;-84
2022/12/17 21:47:00;;;;;;;102.60;73.90;;;;;;;-5.53;96.71;99081.60;105413;1321;22130;-85
2022/12/17 21:49:29;;;;;;;105.60;73.80;;;;;;;-5.57;96.63;99081.02;105676;1314;22083;-86
2022/12/17 21:51:58;;;;;;;103.30;69.20;;;;;;;-5.58;96.47;99080.77;105402;1321;22182;-85
2022/12/17 21:54:26;;;;;;;90.50;67.60;;;;;;;-5.58;96.28;99088.29;105388;1321;22181;-85
2022/12/17 21:56:54;;;;;;;103.30;70.90;;;;;;;-5.55;96.36;99092.41;105328;1321;22827;-86
2022/12/17 21:59:22;;;;;;;105.10;72.70;;;;;;;-5.55;96.48;99096.18;105343;1321;22228;-85
2022/12/17 22:01:51;;;;;;;77.80;65.50;;;;;;;-5.55;96.28;99095.51;105423;1322;22175;-84
2022/12/17 22:04:19;;;;;;;110.70;71.40;;;;;;;-5.56;95.97;99097.40;105115;1321;22777;-85
2022/12/17 22:06:48;;;;;;;93.50;71.10;;;;;;;-5.57;96.08;99100.43;105024;1324;22116;-85
2022/12/17 22:09:31;;;;;;;83.10;64.80;;;;;;;-5.53;96.14;99106.33;105390;1313;22020;-86
2022/12/17 22:15:09;;;;;;;100.40;69.90;;;;;;;-5.55;96.00;99111.68;105870;1305;22182;-84
2022/12/17 22:17:40;;;;;;;80.10;65.80;;;;;;;-5.57;95.90;99112.73;105280;1321;22889;-84
2022/12/17 22:20:09;;;;;;;88.60;66.00;;;;;;;-5.57;96.00;99109.55;105100;1321;22204;-85
2022/12/17 22:22:37;;;;;;;91.60;67.30;;;;;;;-5.52;95.97;99119.40;105286;1321;22090;-85
2022/12/17 22:25:06;;;;;;;84.40;65.90;;;;;;;-5.55;95.84;99116.74;105647;1314;22914;-85
2022/12/17 22:27:39;;;;;;;76.30;62.00;;;;;;;-5.60;95.77;99124.10;105939;1314;22336;-83
2022/12/17 22:33:01;;;;;;;94.70;66.90;;;;;;;-5.59;95.82;99121.48;105510;1321;22199;-84
2022/12/17 22:35:49;;;;;;;195.00;103.70;;;;;;;-5.57;95.98;99124.75;105337;1321;22213;-83
2022/12/17 22:38:37;;;;;;;174.70;96.20;;;;;;;-5.56;96.02;99123.34;105770;1306;22248;-84
2022/12/17 22:44:31;;;;;;;80.60;64.00;;;;;;;-5.56;95.90;99125.56;105362;1321;22788;-83
2022/12/17 22:47:20;;;;;;;83.30;63.20;;;;;;;-5.53;95.88;99135.25;105321;1318;22243;-83
2022/12/17 22:49:48;;;;;;;83.10;67.00;;;;;;;-5.52;95.85;99138.80;105297;1322;21904;-82
2022/12/17 22:52:16;;;;;;;70.90;61.60;;;;;;;-5.55;95.52;99145.79;105619;1318;22205;-83
2022/12/17 22:54:47;;;;;;;72.80;61.30;;;;;;;-5.58;95.58;99146.85;106265;1291;22264;-83
2022/12/17 22:57:15;;;;;;;78.20;61.60;;;;;;;-5.57;95.54;99150.42;105649;1321;22212;-83
2022/12/17 23:00:09;;;;;;;76.30;61.40;;;;;;;-5.56;95.50;99151.31;105564;1321;22752;-82
2022/12/17 23:02:37;;;;;;;79.60;60.30;;;;;;;-5.58;95.17;99153.61;105427;1321;22138;-82
2022/12/17 23:09:22;;;;;;;72.70;59.70;;;;;;;-5.61;95.06;99169.00;105917;1301;22896;-84
2022/12/17 23:11:50;;;;;;;76.10;62.10;;;;;;;-5.60;95.12;99169.23;105352;1322;22090;-83
2022/12/17 23:14:18;;;;;;;70.90;60.80;;;;;;;-5.60;95.13;99173.79;105415;1321;22216;-83
2022/12/17 23:16:47;;;;;;;67.80;58.50;;;;;;;-5.60;94.82;99177.17;105092;1322;22238;-82
2022/12/17 23:19:15;;;;;;;74.60;57.70;;;;;;;-5.62;94.93;99181.02;105622;1314;22234;-81
2022/12/17 23:21:43;;;;;;;87.60;64.00;;;;;;;-5.59;94.84;99181.02;105523;1321;22295;-82
2022/12/17 23:24:10;;;;;;;77.70;60.70;;;;;;;-5.56;94.99;99184.36;105936;1313;22245;-81
2022/12/17 23:26:39;;;;;;;74.40;61.10;;;;;;;-5.54;94.83;99187.73;105569;1321;22338;-82
2022/12/17 23:29:12;;;;;;;68.50;57.80;;;;;;;-5.58;94.72;99185.34;105402;1313;22234;-83
2022/12/17 23:31:46;;;;;;;69.50;57.60;;;;;;;-5.60;94.74;99186.19;105361;1321;22825;-83
2022/12/17 23:34:14;;;;;;;69.30;61.70;;;;;;;-5.58;94.93;99190.40;105362;1316;22240;-83
2022/12/17 23:36:42;;;;;;;68.70;59.10;;;;;;;-5.56;94.85;99191.26;105555;1321;22261;-83
2022/12/17 23:39:10;;;;;;;71.50;58.40;;;;;;;-5.55;94.69;99194.23;105556;1321;22239;-83
2022/12/17 23:41:38;;;;;;;77.70;60.80;;;;;;;-5.57;94.60;99204.29;105568;1321;22110;-83
2022/12/17 23:44:06;;;;;;;72.40;60.20;;;;;;;-5.58;94.61;99203.86;105297;1321;22196;-82
2022/12/17 23:46:34;;;;;;;76.00;60.90;;;;;;;-5.55;94.79;99207.80;105807;1315;22074;-83
2022/12/17 23:49:04;;;;;;;85.80;66.90;;;;;;;-5.52;94.77;99206.95;105264;1322;22843;-83
2022/12/17 23:51:33;;;;;;;70.60;58.70;;;;;;;-5.51;94.69;99205.42;105455;1317;22272;-83
2022/12/17 23:54:01;;;;;;;83.30;64.60;;;;;;;-5.53;94.28;99208.52;105478;1321;22843;-83
2022/12/17 23:56:29;;;;;;;67.70;57.50;;;;;;;-5.56;94.48;99215.09;105413;1323;23024;-83
2022/12/17 23:58:59;;;;;;;63.60;53.90;;;;;;;-5.55;94.44;99219.32;105579;1321;22771;-83
